Markdale, Canada
Current Conditions -  °F | °C
As of 2:38 AM on Monday 22 Dec 2014 (Local Time) from CYBN Reporting Station
Overcast Overcast  
Wind Chill: 19°   Ceiling: 2400
Heat Index: 25°   Visibility: 9mi
Dew Point: 21°   Wind: 5mph
Humidity: 86%   Direction: 210°SSW
Pressure: 30.24"   Gusts: NA
Location:  44.32°N, 80.65°W
Report Text: CYBN 220738Z AUTO 21004KT 9SM OVC024 M04/M06 A3024
Loading
Personal Weather Stations






























Interactive Weather Map New forecast layout! Learn more

10-Day Weather Forecast

Advertisements
Track Severe Weather on mobile